Aeroporto :
LOGIN :

Iscrizione | Disclaimer

   EN    FR    IT 

 










Sommario :    VFR   VFR Marginale   IFR   IFR Intensivo   IFR Molto Intensivo
Visibilità : 
Base nubi : 
>= 8 km
>= 3000ft
5 / 8 km
1000 / 3000 ft
1500m / 5 km
500 / 1000 ft
800 / 1500m
200 / 500 ft
< 800m
< 200 ft
Simboli :   Temporali  Nebbia  Neve Forte  Precipitazioni Forti  Vento > 20 kt
SIGMETs :   Varie  Temporali  Ghiacco  Turbolenza  Onda orograficha  Ceneri Vulcaniche






- Altitudine del aeroporto : 147 ft
- Codice IATA : DUS


EDDL - Düsseldorf Int.

ULTIMO METAR :
  • 251550Z 21006KT 4500 BR FEW003 OVC004 03/03 Q1020 TEMPO 6000

METARs OBSOLETI :
  • 251520Z 18005KT 4000 BR FEW002 OVC004 03/03 Q1020 TEMPO 6000
  • 251450Z 21006KT 2000 -DZ BR FEW002 OVC003 03/03 Q1021 NOSIG
  • 251420Z 19004KT 140V220 1800 BR FEW002 OVC003 03/03 Q1021 BECMG 6000 OVC006
  • 251350Z 16004KT 130V190 2500 BR OVC003 03/03 Q1021 BECMG 6000 OVC006
  • 251320Z 17005KT 3000 BR FEW003 OVC004 03/02 Q1021 BECMG 6000 OVC006

TAF AMD TAF EDDL
Valido dal 25 a 13 ore il 26 a 18 ore UTC


251350Z 2513/2618 19006KT 1200 BR OVC003
BECMG 2514/2516 3500 BKN006
BECMG 2516/2519 7000
BECMG 2522/2601 BKN012
BECMG 2606/2609 16011KT BKN020



MetMap, La meteo Aeronautica in un colpo d'occhio ! - Copyright ORBIFLY Dicembre 2007 - Disclaimer

ORBIFLY MET'MAP TEAM :

Programmazione e sviluppo : Alexandra Zaïnal
Concezione : Baudouin d'Aumeries
Aiuto per la programmazione : Marc-Olivier Méhu
Supporto tecnico e logistico : Manuel Goepfert
Aiuto per la traduzione : Arnaldo La Scala

Contatto : metmap@orbifly.com




FONTI E CREDITI :

   NOAA